Cape Endless — V7WB3 — position and weather

sailwx.info

Track history (hours):
 
Tides and Currents Weather Stations Pressure Air Temp Water Temp Dewpoint Dewpoint Depression Visibility Wind Speed Wind Dir Waves Ship Positions

Cape Endless

Last reported at 2018-Jul-18 05:00 UTC. Time now 2018-Jul-18 05:08 UTC.
Position N 52°40' E 003°03'.

Length 243 m; draft 4.7 m.

Type: Ship. MMSI: 538006185.

Date/timePositionNaut miles runAvg speedWind from/ knotsBaromVisibWave heightAir tempDewpointWater temp
2018-Jul-18 05:00N 52°40' E 003°03'611.1
2018-Jul-18 04:30N 52°45' E 003°07'711.8
2018-Jul-18 03:54N 52°52' E 003°12'512.2
2018-Jul-18 03:29N 52°56' E 003°16'612.5
2018-Jul-18 03:01N 53°02' E 003°19'1112.8
2018-Jul-18 02:08N 53°13' E 003°25'213.0
2018-Jul-18 02:00N 53°14' E 003°25'612.9
2018-Jul-18 01:30N 53°20' E 003°28'712.8
2018-Jul-18 01:00N 53°27' E 003°32'31111.8
2018-Jul-16 22:33N 57°35' E 009°04'111.6
2018-Jul-16 22:29N 57°35' E 009°06'511.5
2018-Jul-16 22:00N 57°38' E 009°15'611.4
2018-Jul-16 21:30N 57°41' E 009°24'611.5
2018-Jul-16 21:01N 57°43' E 009°33'611.6
2018-Jul-16 20:30N 57°46' E 009°43'611.2
2018-Jul-16 20:00N 57°49' E 009°52'611.6
2018-Jul-16 19:31N 57°48' E 010°03'611.4
2018-Jul-16 19:01N 57°49' E 010°14'611.2
2018-Jul-16 18:31N 57°49' E 010°24'510.8
2018-Jul-16 18:00N 57°49' E 010°34'510.9
2018-Jul-16 17:30N 57°48' E 010°45'611.4
2018-Jul-16 17:00N 57°46' E 010°54'611.7
2018-Jul-16 16:31N 57°43' E 011°04'612.2
2018-Jul-16 16:01N 57°40' E 011°14'611.7
2018-Jul-16 15:30N 57°37' E 011°24'511.0
2018-Jul-16 15:01N 57°35' E 011°33'3 6.5
2018-Jul-16 14:30N 57°33' E 011°38'0 0.2
2018-Jul-16 13:59N 57°33' E 011°38'0 0.0
2018-Jul-16 13:29N 57°33' E 011°38'0 0.0
2018-Jul-16 12:59N 57°33' E 011°38'0 0.0
2018-Jul-16 12:29N 57°33' E 011°38'0 0.0
2018-Jul-16 11:59N 57°33' E 011°38'0 0.0
2018-Jul-16 11:29N 57°33' E 011°38'0 0.0
2018-Jul-16 10:59N 57°33' E 011°38'0 0.0
2018-Jul-16 10:29N 57°33' E 011°38'0 0.0
2018-Jul-16 09:56N 57°33' E 011°38'0 0.0
2018-Jul-16 09:29N 57°33' E 011°38'0 0.0
2018-Jul-16 08:56N 57°33' E 011°38'0 0.0
2018-Jul-16 08:29N 57°33' E 011°38'0 0.0
2018-Jul-16 07:59N 57°33' E 011°38'0 0.0
2018-Jul-16 07:26N 57°33' E 011°38'0 0.0
2018-Jul-16 07:01N 57°33' E 011°38'0 0.0
2018-Jul-16 06:30N 57°33' E 011°38'0 0.1
2018-Jul-16 06:00N 57°33' E 011°38'0 0.1
2018-Jul-16 05:30N 57°33' E 011°38'0 0.8
2018-Jul-16 05:00N 57°33' E 011°38'2 3.5
2018-Jul-16 04:31N 57°31' E 011°37'3 6.2
2018-Jul-16 04:00N 57°28' E 011°36'3 6.4
2018-Jul-16 03:30N 57°25' E 011°37'3 6.9
2018-Jul-16 03:01N 57°21' E 011°37'4 7.2
2018-Jul-16 02:30N 57°18' E 011°38'4 7.1
2018-Jul-16 02:00N 57°14' E 011°38'4 7.1
2018-Jul-16 01:30N 57°10' E 011°39'4 7.2
2018-Jul-16 01:00N 57°07' E 011°40'4 7.3
2018-Jul-16 00:31N 57°04' E 011°42'4 7.3
2018-Jul-16 00:00N 56°60' E 011°45'4 7.1
2018-Jul-15 23:30N 56°57' E 011°47'4 7.2
2018-Jul-15 23:00N 56°53' E 011°49'4 7.6
2018-Jul-15 22:30N 56°50' E 011°51'3 6.6
2018-Jul-15 22:00N 56°46' E 011°53'3 6.3
2018-Jul-15 21:30N 56°43' E 011°52'3 7.1
2018-Jul-15 21:00N 56°40' E 011°50'4 7.1
2018-Jul-15 20:31N 56°37' E 011°46'3 6.9
2018-Jul-15 20:01N 56°34' E 011°43'3 5.2
2018-Jul-15 19:30N 56°32' E 011°40'4 8.8
2018-Jul-15 19:00N 56°28' E 011°36'811.5
2018-Jul-15 18:17N 56°21' E 011°28'411.6
2018-Jul-15 17:56N 56°18' E 011°24'511.7
2018-Jul-15 17:31N 56°14' E 011°20'611.6
2018-Jul-15 16:59N 56°08' E 011°14'56 9.9
2018-Jul-15 11:18N 55°13' E 011°06'310.7
2018-Jul-15 11:01N 55°10' E 011°02'510.4
2018-Jul-15 10:30N 55°05' E 010°59'611.2
2018-Jul-15 10:00N 54°60' E 010°59'611.4
2018-Jul-15 09:31N 54°55' E 010°53'611.6
2018-Jul-15 09:01N 54°50' E 010°50'611.4
2018-Jul-15 08:30N 54°44' E 010°47'5 9.6
2018-Jul-15 08:01N 54°40' E 010°50'611.1
2018-Jul-15 07:30N 54°37' E 010°58'611.4
2018-Jul-15 07:00N 54°36' E 011°07'611.1
2018-Jul-15 06:30N 54°34' E 011°17'611.6
2018-Jul-15 06:01N 54°31' E 011°26'611.7
2018-Jul-15 05:30N 54°29' E 011°35'611.4
2018-Jul-15 05:01N 54°27' E 011°44'611.3
2018-Jul-15 04:30N 54°26' E 011°53'611.5
2018-Jul-15 04:01N 54°26' E 012°03'510.3
2018-Jul-15 03:30N 54°28' E 012°12'611.8
2018-Jul-15 03:00N 54°33' E 012°14'5 9.1
2018-Jul-15 02:31N 54°37' E 012°19'5 9.0
2018-Jul-15 01:58N 54°40' E 012°26'4 9.0
2018-Jul-15 01:30N 54°42' E 012°32'5 9.0
2018-Jul-15 00:58N 54°44' E 012°39'4 8.4
2018-Jul-15 00:30N 54°46' E 012°45'4 8.3
2018-Jul-15 00:00N 54°48' E 012°52'5 9.4
2018-Jul-14 23:30N 54°50' E 012°59'611.9
2018-Jul-14 23:01N 54°52' E 013°09'712.0
2018-Jul-14 22:28N 54°54' E 013°19'711.9
2018-Jul-14 21:54N 54°56' E 013°30'811.8
2018-Jul-14 21:15N 54°59' E 013°43'311.7
2018-Jul-14 20:59N 55°00' E 013°48'611.9
2018-Jul-14 20:29N 55°02' E 013°58'712.1
2018-Jul-14 19:55N 55°06' E 014°08'512.1
2018-Jul-14 19:30N 55°08' E 014°16'611.9
2018-Jul-14 19:01N 55°11' E 014°25'611.8
2018-Jul-14 18:30N 55°14' E 014°33'611.5
2018-Jul-14 18:00N 55°18' E 014°41'5 9.9
2018-Jul-14 17:31N 55°20' E 014°49'3 6.4
2018-Jul-14 17:00N 55°19' E 014°55'611.2
2018-Jul-14 16:30N 55°23' E 015°02'611.4
2018-Jul-14 16:00N 55°25' E 015°11'611.5
2018-Jul-14 15:30N 55°28' E 015°21'611.4
2018-Jul-14 15:00N 55°30' E 015°30'611.5
2018-Jul-14 14:31N 55°32' E 015°39'1211.7
2018-Jul-14 13:30N 55°36' E 015°59'611.8
2018-Jul-14 13:00N 55°38' E 016°08'611.8
2018-Jul-14 12:30N 55°41' E 016°18'611.8
2018-Jul-14 12:00N 55°43' E 016°28'611.9
2018-Jul-14 11:30N 55°45' E 016°37'611.8
2018-Jul-14 11:01N 55°47' E 016°47'611.8
2018-Jul-14 10:31N 55°49' E 016°57'611.9
2018-Jul-14 10:01N 55°52' E 017°07'612.0
2018-Jul-14 09:30N 55°54' E 017°17'611.9
2018-Jul-14 09:00N 55°56' E 017°27'612.0
2018-Jul-14 08:31N 55°58' E 017°37'612.1
2018-Jul-14 08:01N 56°01' E 017°46'612.2
2018-Jul-14 07:31N 56°04' E 017°55'612.1
2018-Jul-14 07:00N 56°08' E 018°05'612.2
2018-Jul-14 06:30N 56°11' E 018°14'612.2
2018-Jul-14 06:00N 56°14' E 018°23'612.2
2018-Jul-14 05:30N 56°17' E 018°33'712.3
2018-Jul-14 04:57N 56°20' E 018°43'  
2018-Jul-09 02:30N 56°19' E 018°50'611.5
2018-Jul-09 02:00N 56°15' E 018°42'611.5
2018-Jul-09 01:30N 56°12' E 018°33'611.5
2018-Jul-09 01:00N 56°09' E 018°24'611.5
2018-Jul-09 00:30N 56°06' E 018°15'611.6
2018-Jul-09 00:00N 56°04' E 018°07'611.5
2018-Jul-08 23:30N 56°01' E 017°57'611.5
2018-Jul-08 23:00N 55°58' E 017°48'611.3
2018-Jul-08 22:30N 55°55' E 017°40'611.5
2018-Jul-08 21:57N 55°54' E 017°29'511.4
2018-Jul-08 21:30N 55°52' E 017°20'711.5
2018-Jul-08 20:52N 55°51' E 017°07'411.5
2018-Jul-08 20:30N 55°50' E 016°60'611.5
2018-Jul-08 20:00N 55°48' E 016°50'611.7
2018-Jul-08 19:30N 55°47' E 016°40'611.8
2018-Jul-08 19:00N 55°46' E 016°30'611.9
2018-Jul-08 18:30N 55°44' E 016°19'611.9
2018-Jul-08 18:00N 55°43' E 016°09'612.0
2018-Jul-08 17:30N 55°42' E 015°59'612.2
2018-Jul-08 17:00N 55°40' E 015°48'612.3
2018-Jul-08 16:30N 55°39' E 015°38'611.8
2018-Jul-08 16:00N 55°36' E 015°28'611.8
2018-Jul-08 15:30N 55°33' E 015°19'611.7
2018-Jul-08 15:00N 55°30' E 015°11'611.6
2018-Jul-08 14:30N 55°27' E 015°03'611.4
2018-Jul-08 14:00N 55°24' E 014°54'510.9
2018-Jul-08 13:30N 55°21' E 014°45'5 9.9
2018-Jul-08 13:00N 55°17' E 014°40'611.2
2018-Jul-08 12:30N 55°13' E 014°33'611.1
2018-Jul-08 12:00N 55°10' E 014°25'511.0
2018-Jul-08 11:30N 55°06' E 014°18'611.3
2018-Jul-08 11:00N 55°02' E 014°11'611.3
2018-Jul-08 10:29N 54°59' E 014°02'611.5
2018-Jul-08 10:00N 54°57' E 013°53'1611.2
2018-Jul-08 08:35N 54°53' E 013°27'111.9
2018-Jul-08 08:28N 54°52' E 013°25'612.0
2018-Jul-08 07:59N 54°51' E 013°15'2212.0
2018-Jul-08 06:10N 54°43' E 012°39'612.0
2018-Jul-08 05:41N 54°40' E 012°31'412.3
2018-Jul-08 05:23N 54°38' E 012°26'  
Track history (hours):
 
Tides and Currents Weather Stations Pressure Air Temp Water Temp Dewpoint Dewpoint Depression Visibility Wind Speed Wind Dir Waves Ship Positions

Cape Endless

Last reported at 2018-Jul-18 05:00 UTC. Time now 2018-Jul-18 05:08 UTC.
Position N 52°40' E 003°03'.

Length 243 m; draft 4.7 m.

Type: Ship. MMSI: 538006185.

Date/timePositionNaut miles runAvg speedWind from/ knotsBaromVisibWave heightAir tempDewpointWater temp
2018-Jul-18 05:00N 52°40' E 003°03'611.1
2018-Jul-18 04:30N 52°45' E 003°07'711.8
2018-Jul-18 03:54N 52°52' E 003°12'512.2
2018-Jul-18 03:29N 52°56' E 003°16'612.5
2018-Jul-18 03:01N 53°02' E 003°19'1112.8
2018-Jul-18 02:08N 53°13' E 003°25'213.0
2018-Jul-18 02:00N 53°14' E 003°25'612.9
2018-Jul-18 01:30N 53°20' E 003°28'712.8
2018-Jul-18 01:00N 53°27' E 003°32'31111.8
2018-Jul-16 22:33N 57°35' E 009°04'111.6
2018-Jul-16 22:29N 57°35' E 009°06'511.5
2018-Jul-16 22:00N 57°38' E 009°15'611.4
2018-Jul-16 21:30N 57°41' E 009°24'611.5
2018-Jul-16 21:01N 57°43' E 009°33'611.6
2018-Jul-16 20:30N 57°46' E 009°43'611.2
2018-Jul-16 20:00N 57°49' E 009°52'611.6
2018-Jul-16 19:31N 57°48' E 010°03'611.4
2018-Jul-16 19:01N 57°49' E 010°14'611.2
2018-Jul-16 18:31N 57°49' E 010°24'510.8
2018-Jul-16 18:00N 57°49' E 010°34'510.9
2018-Jul-16 17:30N 57°48' E 010°45'611.4
2018-Jul-16 17:00N 57°46' E 010°54'611.7
2018-Jul-16 16:31N 57°43' E 011°04'612.2
2018-Jul-16 16:01N 57°40' E 011°14'611.7
2018-Jul-16 15:30N 57°37' E 011°24'511.0
2018-Jul-16 15:01N 57°35' E 011°33'3 6.5
2018-Jul-16 14:30N 57°33' E 011°38'0 0.2
2018-Jul-16 13:59N 57°33' E 011°38'0 0.0
2018-Jul-16 13:29N 57°33' E 011°38'0 0.0
2018-Jul-16 12:59N 57°33' E 011°38'0 0.0
2018-Jul-16 12:29N 57°33' E 011°38'0 0.0
2018-Jul-16 11:59N 57°33' E 011°38'0 0.0
2018-Jul-16 11:29N 57°33' E 011°38'0 0.0
2018-Jul-16 10:59N 57°33' E 011°38'0 0.0
2018-Jul-16 10:29N 57°33' E 011°38'0 0.0
2018-Jul-16 09:56N 57°33' E 011°38'0 0.0
2018-Jul-16 09:29N 57°33' E 011°38'0 0.0
2018-Jul-16 08:56N 57°33' E 011°38'0 0.0
2018-Jul-16 08:29N 57°33' E 011°38'0 0.0
2018-Jul-16 07:59N 57°33' E 011°38'0 0.0
2018-Jul-16 07:26N 57°33' E 011°38'0 0.0
2018-Jul-16 07:01N 57°33' E 011°38'0 0.0
2018-Jul-16 06:30N 57°33' E 011°38'0 0.1
2018-Jul-16 06:00N 57°33' E 011°38'0 0.1
2018-Jul-16 05:30N 57°33' E 011°38'0 0.8
2018-Jul-16 05:00N 57°33' E 011°38'2 3.5
2018-Jul-16 04:31N 57°31' E 011°37'3 6.2
2018-Jul-16 04:00N 57°28' E 011°36'3 6.4
2018-Jul-16 03:30N 57°25' E 011°37'3 6.9
2018-Jul-16 03:01N 57°21' E 011°37'4 7.2
2018-Jul-16 02:30N 57°18' E 011°38'4 7.1
2018-Jul-16 02:00N 57°14' E 011°38'4 7.1
2018-Jul-16 01:30N 57°10' E 011°39'4 7.2
2018-Jul-16 01:00N 57°07' E 011°40'4 7.3
2018-Jul-16 00:31N 57°04' E 011°42'4 7.3
2018-Jul-16 00:00N 56°60' E 011°45'4 7.1
2018-Jul-15 23:30N 56°57' E 011°47'4 7.2
2018-Jul-15 23:00N 56°53' E 011°49'4 7.6
2018-Jul-15 22:30N 56°50' E 011°51'3 6.6
2018-Jul-15 22:00N 56°46' E 011°53'3 6.3
2018-Jul-15 21:30N 56°43' E 011°52'3 7.1
2018-Jul-15 21:00N 56°40' E 011°50'4 7.1
2018-Jul-15 20:31N 56°37' E 011°46'3 6.9
2018-Jul-15 20:01N 56°34' E 011°43'3 5.2
2018-Jul-15 19:30N 56°32' E 011°40'4 8.8
2018-Jul-15 19:00N 56°28' E 011°36'811.5
2018-Jul-15 18:17N 56°21' E 011°28'411.6
2018-Jul-15 17:56N 56°18' E 011°24'511.7
2018-Jul-15 17:31N 56°14' E 011°20'611.6
2018-Jul-15 16:59N 56°08' E 011°14'56 9.9
2018-Jul-15 11:18N 55°13' E 011°06'310.7
2018-Jul-15 11:01N 55°10' E 011°02'510.4
2018-Jul-15 10:30N 55°05' E 010°59'611.2
2018-Jul-15 10:00N 54°60' E 010°59'611.4
2018-Jul-15 09:31N 54°55' E 010°53'611.6
2018-Jul-15 09:01N 54°50' E 010°50'611.4
2018-Jul-15 08:30N 54°44' E 010°47'5 9.6
2018-Jul-15 08:01N 54°40' E 010°50'611.1
2018-Jul-15 07:30N 54°37' E 010°58'611.4
2018-Jul-15 07:00N 54°36' E 011°07'611.1
2018-Jul-15 06:30N 54°34' E 011°17'611.6
2018-Jul-15 06:01N 54°31' E 011°26'611.7
2018-Jul-15 05:30N 54°29' E 011°35'611.4
2018-Jul-15 05:01N 54°27' E 011°44'611.3
2018-Jul-15 04:30N 54°26' E 011°53'611.5
2018-Jul-15 04:01N 54°26' E 012°03'510.3
2018-Jul-15 03:30N 54°28' E 012°12'611.8
2018-Jul-15 03:00N 54°33' E 012°14'5 9.1
2018-Jul-15 02:31N 54°37' E 012°19'5 9.0
2018-Jul-15 01:58N 54°40' E 012°26'4 9.0
2018-Jul-15 01:30N 54°42' E 012°32'5 9.0
2018-Jul-15 00:58N 54°44' E 012°39'4 8.4
2018-Jul-15 00:30N 54°46' E 012°45'4 8.3
2018-Jul-15 00:00N 54°48' E 012°52'5 9.4
2018-Jul-14 23:30N 54°50' E 012°59'611.9
2018-Jul-14 23:01N 54°52' E 013°09'712.0
2018-Jul-14 22:28N 54°54' E 013°19'711.9
2018-Jul-14 21:54N 54°56' E 013°30'811.8
2018-Jul-14 21:15N 54°59' E 013°43'311.7
2018-Jul-14 20:59N 55°00' E 013°48'611.9
2018-Jul-14 20:29N 55°02' E 013°58'712.1
2018-Jul-14 19:55N 55°06' E 014°08'512.1
2018-Jul-14 19:30N 55°08' E 014°16'611.9
2018-Jul-14 19:01N 55°11' E 014°25'611.8
2018-Jul-14 18:30N 55°14' E 014°33'611.5
2018-Jul-14 18:00N 55°18' E 014°41'5 9.9
2018-Jul-14 17:31N 55°20' E 014°49'3 6.4
2018-Jul-14 17:00N 55°19' E 014°55'611.2
2018-Jul-14 16:30N 55°23' E 015°02'611.4
2018-Jul-14 16:00N 55°25' E 015°11'611.5
2018-Jul-14 15:30N 55°28' E 015°21'611.4
2018-Jul-14 15:00N 55°30' E 015°30'611.5
2018-Jul-14 14:31N 55°32' E 015°39'1211.7
2018-Jul-14 13:30N 55°36' E 015°59'611.8
2018-Jul-14 13:00N 55°38' E 016°08'611.8
2018-Jul-14 12:30N 55°41' E 016°18'611.8
2018-Jul-14 12:00N 55°43' E 016°28'611.9
2018-Jul-14 11:30N 55°45' E 016°37'611.8
2018-Jul-14 11:01N 55°47' E 016°47'611.8
2018-Jul-14 10:31N 55°49' E 016°57'611.9
2018-Jul-14 10:01N 55°52' E 017°07'612.0
2018-Jul-14 09:30N 55°54' E 017°17'611.9
2018-Jul-14 09:00N 55°56' E 017°27'612.0
2018-Jul-14 08:31N 55°58' E 017°37'612.1
2018-Jul-14 08:01N 56°01' E 017°46'612.2
2018-Jul-14 07:31N 56°04' E 017°55'612.1
2018-Jul-14 07:00N 56°08' E 018°05'612.2
2018-Jul-14 06:30N 56°11' E 018°14'612.2
2018-Jul-14 06:00N 56°14' E 018°23'612.2
2018-Jul-14 05:30N 56°17' E 018°33'712.3
2018-Jul-14 04:57N 56°20' E 018°43'  
2018-Jul-09 02:30N 56°19' E 018°50'611.5
2018-Jul-09 02:00N 56°15' E 018°42'611.5
2018-Jul-09 01:30N 56°12' E 018°33'611.5
2018-Jul-09 01:00N 56°09' E 018°24'611.5
2018-Jul-09 00:30N 56°06' E 018°15'611.6
2018-Jul-09 00:00N 56°04' E 018°07'611.5
2018-Jul-08 23:30N 56°01' E 017°57'611.5
2018-Jul-08 23:00N 55°58' E 017°48'611.3
2018-Jul-08 22:30N 55°55' E 017°40'611.5
2018-Jul-08 21:57N 55°54' E 017°29'511.4
2018-Jul-08 21:30N 55°52' E 017°20'711.5
2018-Jul-08 20:52N 55°51' E 017°07'411.5
2018-Jul-08 20:30N 55°50' E 016°60'611.5
2018-Jul-08 20:00N 55°48' E 016°50'611.7
2018-Jul-08 19:30N 55°47' E 016°40'611.8
2018-Jul-08 19:00N 55°46' E 016°30'611.9
2018-Jul-08 18:30N 55°44' E 016°19'611.9
2018-Jul-08 18:00N 55°43' E 016°09'612.0
2018-Jul-08 17:30N 55°42' E 015°59'612.2
2018-Jul-08 17:00N 55°40' E 015°48'612.3
2018-Jul-08 16:30N 55°39' E 015°38'611.8
2018-Jul-08 16:00N 55°36' E 015°28'611.8
2018-Jul-08 15:30N 55°33' E 015°19'611.7
2018-Jul-08 15:00N 55°30' E 015°11'611.6
2018-Jul-08 14:30N 55°27' E 015°03'611.4
2018-Jul-08 14:00N 55°24' E 014°54'510.9
2018-Jul-08 13:30N 55°21' E 014°45'5 9.9
2018-Jul-08 13:00N 55°17' E 014°40'611.2
2018-Jul-08 12:30N 55°13' E 014°33'611.1
2018-Jul-08 12:00N 55°10' E 014°25'511.0
2018-Jul-08 11:30N 55°06' E 014°18'611.3
2018-Jul-08 11:00N 55°02' E 014°11'611.3
2018-Jul-08 10:29N 54°59' E 014°02'611.5
2018-Jul-08 10:00N 54°57' E 013°53'1611.2
2018-Jul-08 08:35N 54°53' E 013°27'111.9
2018-Jul-08 08:28N 54°52' E 013°25'612.0
2018-Jul-08 07:59N 54°51' E 013°15'2212.0
2018-Jul-08 06:10N 54°43' E 012°39'612.0
2018-Jul-08 05:41N 54°40' E 012°31'412.3
2018-Jul-08 05:23N 54°38' E 012°26'  

Dump ship's entire track history